sensor_id;sensor_type;location;lat;lon;timestamp;pressure;altitude;pressure_sealevel;temperature;humidity
42003;BME280;27693;50.506;30.832;2023-01-26T00:00:47;101036.31;;;-1.94;83.80
42003;BME280;27693;50.506;30.832;2023-01-26T00:01:49;101038.20;;;-1.87;83.64
42003;BME280;27693;50.506;30.832;2023-01-26T00:02:53;101031.69;;;-1.75;84.18
42003;BME280;27693;50.506;30.832;2023-01-26T00:03:56;101040.37;;;-1.69;83.74
42003;BME280;27693;50.506;30.832;2023-01-26T00:04:59;101039.50;;;-1.69;83.65
42003;BME280;27693;50.506;30.832;2023-01-26T00:06:03;101041.38;;;-1.62;84.30
42003;BME280;27693;50.506;30.832;2023-01-26T00:07:07;101034.78;;;-1.54;83.87
42003;BME280;27693;50.506;30.832;2023-01-26T00:08:10;101031.41;;;-1.53;82.92
42003;BME280;27693;50.506;30.832;2023-01-26T00:09:13;101031.53;;;-1.48;83.45
42003;BME280;27693;50.506;30.832;2023-01-26T00:10:16;101030.13;;;-1.35;83.97
42003;BME280;27693;50.506;30.832;2023-01-26T00:11:22;101030.49;;;-1.20;84.14
42003;BME280;27693;50.506;30.832;2023-01-26T00:12:25;101028.30;;;-1.04;84.70
42003;BME280;27693;50.506;30.832;2023-01-26T00:13:27;101022.63;;;-0.91;83.88
42003;BME280;27693;50.506;30.832;2023-01-26T00:14:29;101022.69;;;-0.88;83.20
42003;BME280;27693;50.506;30.832;2023-01-26T00:15:35;101025.88;;;-0.98;81.94
42003;BME280;27693;50.506;30.832;2023-01-26T00:16:38;101019.81;;;-1.03;81.67
42003;BME280;27693;50.506;30.832;2023-01-26T00:17:43;101015.71;;;-0.95;82.07
42003;BME280;27693;50.506;30.832;2023-01-26T00:18:46;101014.59;;;-1.08;81.09
42003;BME280;27693;50.506;30.832;2023-01-26T00:19:48;101011.93;;;-1.13;81.38
42003;BME280;27693;50.506;30.832;2023-01-26T00:20:55;101008.69;;;-1.05;82.06
42003;BME280;27693;50.506;30.832;2023-01-26T00:21:59;101007.12;;;-0.99;81.87
42003;BME280;27693;50.506;30.832;2023-01-26T00:23:01;101009.63;;;-1.02;81.03
42003;BME280;27693;50.506;30.832;2023-01-26T00:24:03;101021.52;;;-1.02;80.61
42003;BME280;27693;50.506;30.832;2023-01-26T00:25:07;101002.91;;;-0.97;81.09
42003;BME280;27693;50.506;30.832;2023-01-26T00:26:12;101004.30;;;-1.11;80.86
42003;BME280;27693;50.506;30.832;2023-01-26T00:27:14;101004.81;;;-1.26;80.63
42003;BME280;27693;50.506;30.832;2023-01-26T00:28:17;101003.11;;;-1.25;80.72
42003;BME280;27693;50.506;30.832;2023-01-26T00:29:19;101005.78;;;-1.21;81.63
42003;BME280;27693;50.506;30.832;2023-01-26T00:30:22;101007.73;;;-1.10;81.86
42003;BME280;27693;50.506;30.832;2023-01-26T00:31:26;101012.06;;;-1.06;81.68
42003;BME280;27693;50.506;30.832;2023-01-26T00:32:28;101009.64;;;-1.00;81.03
42003;BME280;27693;50.506;30.832;2023-01-26T00:33:31;101008.61;;;-1.08;80.07
42003;BME280;27693;50.506;30.832;2023-01-26T00:34:35;101012.64;;;-1.18;80.10
42003;BME280;27693;50.506;30.832;2023-01-26T00:35:37;101001.22;;;-1.34;80.29
42003;BME280;27693;50.506;30.832;2023-01-26T00:36:40;101005.80;;;-1.56;79.90
42003;BME280;27693;50.506;30.832;2023-01-26T00:37:42;101002.77;;;-1.76;79.77
42003;BME280;27693;50.506;30.832;2023-01-26T00:38:45;101003.77;;;-1.69;81.11
42003;BME280;27693;50.506;30.832;2023-01-26T00:39:47;101001.45;;;-1.60;81.73
42003;BME280;27693;50.506;30.832;2023-01-26T00:40:50;101008.38;;;-1.54;82.08
42003;BME280;27693;50.506;30.832;2023-01-26T00:41:52;101008.44;;;-1.53;81.86
42003;BME280;27693;50.506;30.832;2023-01-26T00:43:16;101003.34;;;-1.53;81.60
42003;BME280;27693;50.506;30.832;2023-01-26T00:44:18;101003.44;;;-1.83;81.50
42003;BME280;27693;50.506;30.832;2023-01-26T00:45:21;101005.11;;;-1.84;82.16
42003;BME280;27693;50.506;30.832;2023-01-26T00:46:23;100995.14;;;-1.74;82.51
42003;BME280;27693;50.506;30.832;2023-01-26T00:47:26;100996.91;;;-1.72;82.53
42003;BME280;27693;50.506;30.832;2023-01-26T00:48:28;101000.78;;;-1.53;83.16
42003;BME280;27693;50.506;30.832;2023-01-26T00:49:30;100996.05;;;-1.37;83.33
42003;BME280;27693;50.506;30.832;2023-01-26T00:50:33;100999.82;;;-1.21;83.69
42003;BME280;27693;50.506;30.832;2023-01-26T00:51:35;100998.39;;;-1.08;83.89
42003;BME280;27693;50.506;30.832;2023-01-26T00:52:38;100997.89;;;-0.93;84.03
42003;BME280;27693;50.506;30.832;2023-01-26T00:53:41;100990.25;;;-0.92;82.81
42003;BME280;27693;50.506;30.832;2023-01-26T00:54:43;100993.96;;;-0.77;82.95
42003;BME280;27693;50.506;30.832;2023-01-26T00:55:45;100990.07;;;-0.58;82.48
42003;BME280;27693;50.506;30.832;2023-01-26T00:56:47;100991.76;;;-0.60;81.57
42003;BME280;27693;50.506;30.832;2023-01-26T00:57:49;100986.47;;;-0.68;80.25
42003;BME280;27693;50.506;30.832;2023-01-26T00:58:51;100989.25;;;-0.57;80.59
42003;BME280;27693;50.506;30.832;2023-01-26T00:59:54;100990.61;;;-0.75;79.63
42003;BME280;27693;50.506;30.832;2023-01-26T01:00:58;100978.63;;;-0.66;80.44
42003;BME280;27693;50.506;30.832;2023-01-26T01:02:02;100978.63;;;-0.77;79.72
42003;BME280;27693;50.506;30.832;2023-01-26T01:03:05;100988.98;;;-0.71;80.02
42003;BME280;27693;50.506;30.832;2023-01-26T01:04:08;100986.63;;;-0.62;80.64
42003;BME280;27693;50.506;30.832;2023-01-26T01:05:10;100979.84;;;-0.58;80.56
42003;BME280;27693;50.506;30.832;2023-01-26T01:06:13;100987.38;;;-0.66;80.21
42003;BME280;27693;50.506;30.832;2023-01-26T01:07:15;100984.55;;;-0.80;79.66
42003;BME280;27693;50.506;30.832;2023-01-26T01:08:18;100983.74;;;-0.77;79.86
42003;BME280;27693;50.506;30.832;2023-01-26T01:09:20;100981.98;;;-0.80;79.69
42003;BME280;27693;50.506;30.832;2023-01-26T01:10:24;100983.74;;;-0.77;79.97
42003;BME280;27693;50.506;30.832;2023-01-26T01:11:28;100978.75;;;-0.71;81.24
42003;BME280;27693;50.506;30.832;2023-01-26T01:12:31;100990.50;;;-0.79;80.51
42003;BME280;27693;50.506;30.832;2023-01-26T01:13:36;100972.70;;;-0.76;80.56
42003;BME280;27693;50.506;30.832;2023-01-26T01:14:39;100982.06;;;-0.75;80.48
42003;BME280;27693;50.506;30.832;2023-01-26T01:15:42;100970.30;;;-0.67;80.54
42003;BME280;27693;50.506;30.832;2023-01-26T01:16:44;100971.91;;;-0.72;80.35
42003;BME280;27693;50.506;30.832;2023-01-26T01:17:47;100974.32;;;-0.80;79.99
42003;BME280;27693;50.506;30.832;2023-01-26T01:18:57;100969.22;;;-0.80;80.07
42003;BME280;27693;50.506;30.832;2023-01-26T01:19:56;100969.22;;;-0.80;80.12
42003;BME280;27693;50.506;30.832;2023-01-26T01:20:59;100970.06;;;-0.79;80.31
42003;BME280;27693;50.506;30.832;2023-01-26T01:22:01;100963.09;;;-0.87;79.98
42003;BME280;27693;50.506;30.832;2023-01-26T01:23:03;100970.66;;;-0.91;80.52
42003;BME280;27693;50.506;30.832;2023-01-26T01:24:05;100962.34;;;-0.83;80.93
42003;BME280;27693;50.506;30.832;2023-01-26T01:25:08;100962.41;;;-0.78;81.33
42003;BME280;27693;50.506;30.832;2023-01-26T01:26:12;100972.02;;;-0.68;81.04
42003;BME280;27693;50.506;30.832;2023-01-26T01:27:15;100961.81;;;-0.66;80.33
42003;BME280;27693;50.506;30.832;2023-01-26T01:28:17;100966.73;;;-0.75;79.58
42003;BME280;27693;50.506;30.832;2023-01-26T01:29:19;100971.79;;;-0.78;79.78
42003;BME280;27693;50.506;30.832;2023-01-26T01:30:22;100966.70;;;-0.77;80.47
42003;BME280;27693;50.506;30.832;2023-01-26T01:31:24;100973.69;;;-0.68;80.72
42003;BME280;27693;50.506;30.832;2023-01-26T01:32:27;100967.05;;;-0.60;81.09
42003;BME280;27693;50.506;30.832;2023-01-26T01:33:29;100968.85;;;-0.56;80.71
42003;BME280;27693;50.506;30.832;2023-01-26T01:34:31;100967.05;;;-0.60;80.46
42003;BME280;27693;50.506;30.832;2023-01-26T01:35:33;100962.94;;;-0.53;80.98
42003;BME280;27693;50.506;30.832;2023-01-26T01:36:37;100959.70;;;-0.43;81.33
42003;BME280;27693;50.506;30.832;2023-01-26T01:37:40;100960.81;;;-0.30;81.56
42003;BME280;27693;50.506;30.832;2023-01-26T01:38:44;100962.13;;;-0.51;79.76
42003;BME280;27693;50.506;30.832;2023-01-26T01:39:48;100960.39;;;-0.52;79.61
42003;BME280;27693;50.506;30.832;2023-01-26T01:40:51;100959.55;;;-0.52;79.11
42003;BME280;27693;50.506;30.832;2023-01-26T01:41:53;100958.06;;;-0.84;78.18
42003;BME280;27693;50.506;30.832;2023-01-26T01:42:56;100951.95;;;-0.90;78.67
42003;BME280;27693;50.506;30.832;2023-01-26T01:44:16;100956.33;;;-0.85;79.08
42003;BME280;27693;50.506;30.832;2023-01-26T01:46:34;100950.05;;;-0.58;79.96
42003;BME280;27693;50.506;30.832;2023-01-26T01:47:38;100949.44;;;-0.46;79.92
42003;BME280;27693;50.506;30.832;2023-01-26T01:48:52;100955.52;;;-0.39;79.49
42003;BME280;27693;50.506;30.832;2023-01-26T01:49:55;100951.41;;;-0.31;79.29
42003;BME280;27693;50.506;30.832;2023-01-26T01:51:02;100952.86;;;-0.44;79.36
42003;BME280;27693;50.506;30.832;2023-01-26T01:53:16;100932.52;;;-0.84;79.18
42003;BME280;27693;50.506;30.832;2023-01-26T01:54:25;100934.72;;;-1.01;79.24
42003;BME280;27693;50.506;30.832;2023-01-26T01:55:25;100931.39;;;-0.97;79.59
42003;BME280;27693;50.506;30.832;2023-01-26T01:56:28;100936.82;;;-0.81;80.51
42003;BME280;27693;50.506;30.832;2023-01-26T01:57:39;100930.91;;;-0.78;79.53
42003;BME280;27693;50.506;30.832;2023-01-26T01:58:44;100932.80;;;-0.68;80.51
42003;BME280;27693;50.506;30.832;2023-01-26T01:59:50;100926.98;;;-0.61;79.79
42003;BME280;27693;50.506;30.832;2023-01-26T02:00:52;100929.72;;;-0.52;79.78
42003;BME280;27693;50.506;30.832;2023-01-26T02:01:55;100931.67;;;-0.38;79.31
42003;BME280;27693;50.506;30.832;2023-01-26T02:03:06;100920.74;;;-0.29;79.20
42003;BME280;27693;50.506;30.832;2023-01-26T02:04:13;100931.17;;;-0.19;78.78
42003;BME280;27693;50.506;30.832;2023-01-26T02:05:23;100924.32;;;-0.20;78.66
42003;BME280;27693;50.506;30.832;2023-01-26T02:06:49;100924.32;;;-0.20;78.66
42003;BME280;27693;50.506;30.832;2023-01-26T02:07:53;100920.23;;;-0.10;78.79
42003;BME280;27693;50.506;30.832;2023-01-26T02:08:56;100913.27;;;-0.19;78.26
42003;BME280;27693;50.506;30.832;2023-01-26T02:09:59;100916.01;;;-0.08;78.83
42003;BME280;27693;50.506;30.832;2023-01-26T02:12:35;100915.20;;;-0.05;77.90
42003;BME280;27693;50.506;30.832;2023-01-26T02:13:38;100917.02;;;0.02;78.50
42003;BME280;27693;50.506;30.832;2023-01-26T02:14:43;100912.63;;;-0.05;77.74
42003;BME280;27693;50.506;30.832;2023-01-26T02:15:45;100917.91;;;0.03;77.67
42003;BME280;27693;50.506;30.832;2023-01-26T02:16:48;100912.88;;;0.09;77.49
42003;BME280;27693;50.506;30.832;2023-01-26T02:17:51;100913.06;;;0.20;76.83
42003;BME280;27693;50.506;30.832;2023-01-26T02:18:54;100910.53;;;0.23;76.59
42003;BME280;27693;50.506;30.832;2023-01-26T02:21:18;100912.36;;;0.31;75.47
42003;BME280;27693;50.506;30.832;2023-01-26T02:22:29;100907.38;;;0.39;75.74
42003;BME280;27693;50.506;30.832;2023-01-26T02:25:09;100905.59;;;0.35;75.30
42003;BME280;27693;50.506;30.832;2023-01-26T02:26:13;100910.59;;;0.26;76.18
42003;BME280;27693;50.506;30.832;2023-01-26T02:27:18;100910.61;;;0.27;75.96
42003;BME280;27693;50.506;30.832;2023-01-26T02:28:25;100902.64;;;0.09;75.51
42003;BME280;27693;50.506;30.832;2023-01-26T02:29:28;100900.04;;;0.07;75.54
42003;BME280;27693;50.506;30.832;2023-01-26T02:30:31;100903.56;;;0.12;75.49
42003;BME280;27693;50.506;30.832;2023-01-26T02:31:34;100894.83;;;0.01;76.26
42003;BME280;27693;50.506;30.832;2023-01-26T02:32:38;100892.27;;;0.01;77.36
42003;BME280;27693;50.506;30.832;2023-01-26T02:33:42;100893.91;;;-0.03;77.15
42003;BME280;27693;50.506;30.832;2023-01-26T02:34:44;100895.73;;;0.05;77.29
42003;BME280;27693;50.506;30.832;2023-01-26T02:35:46;100887.88;;;-0.06;77.08
42003;BME280;27693;50.506;30.832;2023-01-26T02:36:57;100887.59;;;-0.23;76.62
42003;BME280;27693;50.506;30.832;2023-01-26T02:38:00;100895.23;;;-0.26;78.15
42003;BME280;27693;50.506;30.832;2023-01-26T02:40:45;100896.89;;;-0.28;78.22
42003;BME280;27693;50.506;30.832;2023-01-26T02:41:50;100890.76;;;-0.38;77.66
42003;BME280;27693;50.506;30.832;2023-01-26T02:43:13;100887.48;;;-0.31;78.16
42003;BME280;27693;50.506;30.832;2023-01-26T02:44:16;100893.41;;;-0.34;77.87
42003;BME280;27693;50.506;30.832;2023-01-26T02:45:20;100892.61;;;-0.29;77.47
42003;BME280;27693;50.506;30.832;2023-01-26T02:46:23;100887.39;;;-0.36;77.36
42003;BME280;27693;50.506;30.832;2023-01-26T02:47:26;100890.94;;;-0.29;77.90
42003;BME280;27693;50.506;30.832;2023-01-26T02:48:28;100885.02;;;-0.25;79.09
42003;BME280;27693;50.506;30.832;2023-01-26T02:49:50;100879.18;;;-0.18;79.79
42003;BME280;27693;50.506;30.832;2023-01-26T02:50:54;100888.66;;;-0.12;79.79
42003;BME280;27693;50.506;30.832;2023-01-26T02:51:57;100886.85;;;-0.18;79.04
42003;BME280;27693;50.506;30.832;2023-01-26T02:52:59;100883.56;;;-0.10;78.65
42003;BME280;27693;50.506;30.832;2023-01-26T02:54:03;100879.30;;;-0.10;78.07
42003;BME280;27693;50.506;30.832;2023-01-26T02:55:07;100875.08;;;-0.08;78.34
42003;BME280;27693;50.506;30.832;2023-01-26T02:56:39;100884.02;;;0.18;77.93
42003;BME280;27693;50.506;30.832;2023-01-26T02:57:42;100885.58;;;0.09;77.64
42003;BME280;27693;50.506;30.832;2023-01-26T02:58:45;100882.08;;;0.03;77.42
42003;BME280;27693;50.506;30.832;2023-01-26T02:59:47;100882.08;;;0.03;76.96
42003;BME280;27693;50.506;30.832;2023-01-26T03:00:49;100876.90;;;-0.01;77.37
42003;BME280;27693;50.506;30.832;2023-01-26T03:01:51;100870.94;;;-0.01;77.40
42003;BME280;27693;50.506;30.832;2023-01-26T03:02:56;100871.89;;;0.07;77.21
42003;BME280;27693;50.506;30.832;2023-01-26T03:03:59;100858.36;;;0.14;76.74
42003;BME280;27693;50.506;30.832;2023-01-26T03:05:02;100864.38;;;0.18;76.69
42003;BME280;27693;50.506;30.832;2023-01-26T03:06:08;100852.64;;;0.31;76.27
42003;BME280;27693;50.506;30.832;2023-01-26T03:07:11;100852.64;;;0.31;76.27
42003;BME280;27693;50.506;30.832;2023-01-26T03:08:13;100862.16;;;0.41;75.91
42003;BME280;27693;50.506;30.832;2023-01-26T03:09:16;100855.50;;;0.51;75.29
42003;BME280;27693;50.506;30.832;2023-01-26T03:10:19;100858.15;;;0.59;75.09
42003;BME280;27693;50.506;30.832;2023-01-26T03:11:23;100854.85;;;0.69;74.39
42003;BME280;27693;50.506;30.832;2023-01-26T03:12:28;100848.19;;;0.81;73.46
42003;BME280;27693;50.506;30.832;2023-01-26T03:13:30;100858.45;;;0.84;73.17
42003;BME280;27693;50.506;30.832;2023-01-26T03:14:33;100851.73;;;0.92;72.84
42003;BME280;27693;50.506;30.832;2023-01-26T03:15:36;100853.50;;;0.96;72.88
42003;BME280;27693;50.506;30.832;2023-01-26T03:16:47;100851.84;;;1.01;73.10
42003;BME280;27693;50.506;30.832;2023-01-26T03:17:49;100845.06;;;1.06;72.52
42003;BME280;27693;50.506;30.832;2023-01-26T03:18:51;100846.80;;;1.09;72.40
42003;BME280;27693;50.506;30.832;2023-01-26T03:20:08;100846.85;;;1.14;71.90
42003;BME280;27693;50.506;30.832;2023-01-26T03:21:30;100847.80;;;1.22;71.44
42003;BME280;27693;50.506;30.832;2023-01-26T03:22:51;100852.09;;;1.23;71.18
42003;BME280;27693;50.506;30.832;2023-01-26T03:24:14;100846.98;;;1.26;70.34
42003;BME280;27693;50.506;30.832;2023-01-26T03:25:36;100847.73;;;1.16;70.67
42003;BME280;27693;50.506;30.832;2023-01-26T03:26:58;100848.52;;;1.08;70.56
42003;BME280;27693;50.506;30.832;2023-01-26T03:28:19;100849.30;;;1.04;70.69
42003;BME280;27693;50.506;30.832;2023-01-26T03:29:24;100842.44;;;1.02;71.77
42003;BME280;27693;50.506;30.832;2023-01-26T03:30:30;100844.05;;;0.93;72.59
42003;BME280;27693;50.506;30.832;2023-01-26T03:31:34;100844.88;;;0.91;72.77
42003;BME280;27693;50.506;30.832;2023-01-26T03:32:38;100841.47;;;0.90;71.80
42003;BME280;27693;50.506;30.832;2023-01-26T03:33:41;100837.89;;;0.79;72.38
42003;BME280;27693;50.506;30.832;2023-01-26T03:34:43;100843.84;;;0.76;73.74
42003;BME280;27693;50.506;30.832;2023-01-26T03:35:46;100843.77;;;0.69;72.86
42003;BME280;27693;50.506;30.832;2023-01-26T03:36:48;100843.77;;;0.69;72.86
42003;BME280;27693;50.506;30.832;2023-01-26T03:37:52;100840.16;;;0.56;72.88
42003;BME280;27693;50.506;30.832;2023-01-26T03:39:13;100842.78;;;0.59;73.76
42003;BME280;27693;50.506;30.832;2023-01-26T03:40:18;100840.35;;;0.68;72.87
42003;BME280;27693;50.506;30.832;2023-01-26T03:41:40;100834.47;;;0.75;72.73
42003;BME280;27693;50.506;30.832;2023-01-26T03:43:06;100835.39;;;0.82;71.53
42003;BME280;27693;50.506;30.832;2023-01-26T03:44:26;100837.23;;;0.92;71.44
42003;BME280;27693;50.506;30.832;2023-01-26T03:45:47;100834.36;;;0.69;72.30
42003;BME280;27693;50.506;30.832;2023-01-26T03:47:08;100832.67;;;0.68;73.04
42003;BME280;27693;50.506;30.832;2023-01-26T03:48:29;100837.73;;;0.65;73.82
42003;BME280;27693;50.506;30.832;2023-01-26T03:49:50;100830.95;;;0.67;73.53
42003;BME280;27693;50.506;30.832;2023-01-26T03:51:11;100830.20;;;0.77;73.00
42003;BME280;27693;50.506;30.832;2023-01-26T03:52:32;100831.16;;;0.86;73.22
42003;BME280;27693;50.506;30.832;2023-01-26T03:53:53;100832.05;;;0.89;73.04
42003;BME280;27693;50.506;30.832;2023-01-26T03:55:14;100831.30;;;0.98;72.00
42003;BME280;27693;50.506;30.832;2023-01-26T03:56:36;100829.55;;;0.94;72.41
42003;BME280;27693;50.506;30.832;2023-01-26T03:57:40;100831.21;;;0.89;72.51
42003;BME280;27693;50.506;30.832;2023-01-26T03:59:53;100828.66;;;0.90;71.07
42003;BME280;27693;50.506;30.832;2023-01-26T04:00:56;100825.14;;;0.84;72.12
42003;BME280;27693;50.506;30.832;2023-01-26T04:01:58;100827.69;;;0.81;71.90
42003;BME280;27693;50.506;30.832;2023-01-26T04:03:19;100830.19;;;0.76;71.93
42003;BME280;27693;50.506;30.832;2023-01-26T04:04:41;100829.30;;;0.74;72.41
42003;BME280;27693;50.506;30.832;2023-01-26T04:06:03;100832.56;;;0.62;73.26
42003;BME280;27693;50.506;30.832;2023-01-26T04:07:24;100839.24;;;0.49;74.16
42003;BME280;27693;50.506;30.832;2023-01-26T04:08:47;100835.78;;;0.45;74.21
42003;BME280;27693;50.506;30.832;2023-01-26T04:09:49;100838.19;;;0.35;74.51
42003;BME280;27693;50.506;30.832;2023-01-26T04:10:53;100842.41;;;0.31;75.05
42003;BME280;27693;50.506;30.832;2023-01-26T04:11:56;100842.41;;;0.33;74.60
42003;BME280;27693;50.506;30.832;2023-01-26T04:13:00;100852.78;;;0.40;73.95
42003;BME280;27693;50.506;30.832;2023-01-26T04:14:23;100844.36;;;0.49;73.67
42003;BME280;27693;50.506;30.832;2023-01-26T04:15:48;100842.80;;;0.62;73.39
42003;BME280;27693;50.506;30.832;2023-01-26T04:17:10;100837.89;;;0.77;73.11
42003;BME280;27693;50.506;30.832;2023-01-26T04:18:32;100833.77;;;0.89;72.30
42003;BME280;27693;50.506;30.832;2023-01-26T07:50:51;100837.19;;;-0.79;87.88
42003;BME280;27693;50.506;30.832;2023-01-26T07:51:53;100821.94;;;-0.75;88.72
42003;BME280;27693;50.506;30.832;2023-01-26T07:52:55;100830.53;;;-0.71;88.25
42003;BME280;27693;50.506;30.832;2023-01-26T07:53:59;100823.80;;;-0.66;88.38
42003;BME280;27693;50.506;30.832;2023-01-26T07:55:04;100830.70;;;-0.62;87.69
42003;BME280;27693;50.506;30.832;2023-01-26T07:56:09;100825.52;;;-0.65;86.98
42003;BME280;27693;50.506;30.832;2023-01-26T07:57:12;100823.97;;;-0.57;87.63
42003;BME280;27693;50.506;30.832;2023-01-26T07:58:14;100821.45;;;-0.54;87.32
42003;BME280;27693;50.506;30.832;2023-01-26T07:59:16;100830.23;;;-0.38;88.38
42003;BME280;27693;50.506;30.832;2023-01-26T08:00:19;100832.05;;;-0.32;88.24
42003;BME280;27693;50.506;30.832;2023-01-26T08:01:22;100829.64;;;-0.24;87.94
42003;BME280;27693;50.506;30.832;2023-01-26T08:02:24;100832.95;;;-0.30;86.79
42003;BME280;27693;50.506;30.832;2023-01-26T08:03:27;100833.20;;;-0.14;87.52
42003;BME280;27693;50.506;30.832;2023-01-26T08:04:31;100835.03;;;-0.06;87.56
42003;BME280;27693;50.506;30.832;2023-01-26T08:05:33;100831.57;;;-0.09;86.43
42003;BME280;27693;50.506;30.832;2023-01-26T08:06:38;100830.02;;;0.01;86.20
42003;BME280;27693;50.506;30.832;2023-01-26T08:07:40;100830.75;;;-0.07;85.25
42003;BME280;27693;50.506;30.832;2023-01-26T08:08:43;100833.42;;;0.01;85.61
42003;BME280;27693;50.506;30.832;2023-01-26T08:09:47;100827.53;;;0.05;85.70
42003;BME280;27693;50.506;30.832;2023-01-26T08:10:50;100826.63;;;0.02;85.19
42003;BME280;27693;50.506;30.832;2023-01-26T08:11:55;100830.73;;;-0.08;84.97
42003;BME280;27693;50.506;30.832;2023-01-26T08:13:00;100839.10;;;-0.17;84.58
42003;BME280;27693;50.506;30.832;2023-01-26T08:14:03;100836.59;;;-0.15;85.17
42003;BME280;27693;50.506;30.832;2023-01-26T08:15:07;100833.11;;;-0.21;85.63
42003;BME280;27693;50.506;30.832;2023-01-26T08:16:10;100836.40;;;-0.28;85.64
42003;BME280;27693;50.506;30.832;2023-01-26T08:17:13;100838.06;;;-0.30;86.09
42003;BME280;27693;50.506;30.832;2023-01-26T08:18:17;100838.06;;;-0.30;86.09
42003;BME280;27693;50.506;30.832;2023-01-26T08:19:19;100826.90;;;-0.35;86.31
42003;BME280;27693;50.506;30.832;2023-01-26T08:20:22;100834.61;;;-0.32;86.60
42003;BME280;27693;50.506;30.832;2023-01-26T08:21:24;100824.54;;;-0.23;87.21
42003;BME280;27693;50.506;30.832;2023-01-26T08:22:26;100824.54;;;-0.23;87.21
42003;BME280;27693;50.506;30.832;2023-01-26T08:23:29;100828.21;;;-0.05;88.02
42003;BME280;27693;50.506;30.832;2023-01-26T08:24:31;100831.66;;;-0.03;87.52
42003;BME280;27693;50.506;30.832;2023-01-26T08:25:39;100828.39;;;0.07;87.30
42003;BME280;27693;50.506;30.832;2023-01-26T08:26:41;100827.70;;;0.18;87.64
42003;BME280;27693;50.506;30.832;2023-01-26T08:27:44;100825.91;;;0.12;86.81
42003;BME280;27693;50.506;30.832;2023-01-26T08:28:46;100841.90;;;-0.03;85.69
42003;BME280;27693;50.506;30.832;2023-01-26T08:29:48;100834.11;;;-0.11;85.38
42003;BME280;27693;50.506;30.832;2023-01-26T08:30:52;100833.14;;;-0.18;84.96
42003;BME280;27693;50.506;30.832;2023-01-26T08:31:54;100837.36;;;-0.20;85.01
42003;BME280;27693;50.506;30.832;2023-01-26T08:32:58;100833.95;;;-0.20;85.20
42003;BME280;27693;50.506;30.832;2023-01-26T08:34:00;100834.06;;;-0.12;86.21
42003;BME280;27693;50.506;30.832;2023-01-26T08:35:02;100834.77;;;-0.23;85.91
42003;BME280;27693;50.506;30.832;2023-01-26T08:36:07;100837.34;;;-0.21;86.01
42003;BME280;27693;50.506;30.832;2023-01-26T08:37:11;100826.44;;;-0.11;86.48
42003;BME280;27693;50.506;30.832;2023-01-26T08:38:13;100825.53;;;-0.14;85.70
42003;BME280;27693;50.506;30.832;2023-01-26T08:39:15;100821.15;;;-0.22;85.56
42003;BME280;27693;50.506;30.832;2023-01-26T08:40:17;100830.30;;;-0.35;85.32
42003;BME280;27693;50.506;30.832;2023-01-26T08:41:20;100822.72;;;-0.30;85.86
42003;BME280;27693;50.506;30.832;2023-01-26T08:42:22;100822.72;;;-0.30;86.00
42003;BME280;27693;50.506;30.832;2023-01-26T08:43:26;100822.61;;;-0.36;85.87
42003;BME280;27693;50.506;30.832;2023-01-26T08:44:29;100815.94;;;-0.28;86.53
42003;BME280;27693;50.506;30.832;2023-01-26T08:45:32;100816.06;;;-0.19;86.28
42003;BME280;27693;50.506;30.832;2023-01-26T08:46:36;100809.30;;;-0.15;86.34
42003;BME280;27693;50.506;30.832;2023-01-26T08:47:39;100810.94;;;-0.20;85.90
42003;BME280;27693;50.506;30.832;2023-01-26T08:48:41;100815.25;;;-0.16;86.49
42003;BME280;27693;50.506;30.832;2023-01-26T08:49:43;100801.70;;;-0.10;86.43
42003;BME280;27693;50.506;30.832;2023-01-26T08:50:45;100804.33;;;-0.07;85.85
42003;BME280;27693;50.506;30.832;2023-01-26T08:51:48;100805.16;;;-0.08;85.96
42003;BME280;27693;50.506;30.832;2023-01-26T08:52:54;100808.55;;;-0.09;85.83
42003;BME280;27693;50.506;30.832;2023-01-26T08:54:09;100799.39;;;0.05;86.07
42003;BME280;27693;50.506;30.832;2023-01-26T08:55:12;100809.44;;;-0.07;86.22
42003;BME280;27693;50.506;30.832;2023-01-26T08:56:14;100802.59;;;-0.08;86.19
42003;BME280;27693;50.506;30.832;2023-01-26T08:57:16;100808.48;;;-0.12;86.16
42003;BME280;27693;50.506;30.832;2023-01-26T08:58:19;100797.42;;;-0.11;86.40
42003;BME280;27693;50.506;30.832;2023-01-26T08:59:22;100807.53;;;-0.21;86.13
42003;BME280;27693;50.506;30.832;2023-01-26T09:00:24;100800.72;;;-0.19;86.19
42003;BME280;27693;50.506;30.832;2023-01-26T09:01:27;100809.28;;;-0.17;85.76
42003;BME280;27693;50.506;30.832;2023-01-26T09:02:29;100799.99;;;-0.10;86.58
42003;BME280;27693;50.506;30.832;2023-01-26T09:03:32;100805.08;;;-0.13;85.57
42003;BME280;27693;50.506;30.832;2023-01-26T09:04:34;100802.54;;;-0.11;85.68
42003;BME280;27693;50.506;30.832;2023-01-26T09:05:38;100802.59;;;-0.08;85.46
42003;BME280;27693;50.506;30.832;2023-01-26T09:06:42;100809.62;;;0.05;86.24
42003;BME280;27693;50.506;30.832;2023-01-26T09:07:44;100802.72;;;0.01;85.36
42003;BME280;27693;50.506;30.832;2023-01-26T09:08:48;100792.63;;;0.10;85.91
42003;BME280;27693;50.506;30.832;2023-01-26T09:09:51;100798.59;;;0.11;85.30
42003;BME280;27693;50.506;30.832;2023-01-26T09:10:53;100792.70;;;0.17;85.57
42003;BME280;27693;50.506;30.832;2023-01-26T09:11:55;100796.16;;;0.19;85.28
42003;BME280;27693;50.506;30.832;2023-01-26T09:12:58;100789.34;;;0.21;84.88
42003;BME280;27693;50.506;30.832;2023-01-26T09:14:01;100794.38;;;0.14;84.85
42003;BME280;27693;50.506;30.832;2023-01-26T09:15:04;100788.50;;;0.20;85.08
42003;BME280;27693;50.506;30.832;2023-01-26T09:16:17;100796.08;;;0.12;84.31
42003;BME280;27693;50.506;30.832;2023-01-26T09:17:20;100794.46;;;0.21;84.55
42003;BME280;27693;50.506;30.832;2023-01-26T09:18:23;100794.46;;;0.21;84.67
42003;BME280;27693;50.506;30.832;2023-01-26T09:19:26;100789.48;;;0.30;84.67
42003;BME280;27693;50.506;30.832;2023-01-26T09:20:28;100793.70;;;0.28;84.33